sensor_id;sensor_type;location;lat;lon;timestamp;pressure;altitude;pressure_sealevel;temperature;humidity
20019;BME280;10170;42.502;26.526;2023-03-31T00:02:13;99939.19;;;7.13;65.10
20019;BME280;10170;42.502;26.526;2023-03-31T00:04:41;99928.34;;;7.22;64.85
20019;BME280;10170;42.502;26.526;2023-03-31T00:07:19;99918.53;;;7.08;64.91
20019;BME280;10170;42.502;26.526;2023-03-31T00:09:50;99933.81;;;7.21;65.13
20019;BME280;10170;42.502;26.526;2023-03-31T00:12:36;99931.16;;;7.21;66.26
20019;BME280;10170;42.502;26.526;2023-03-31T00:15:03;99932.22;;;7.34;66.38
20019;BME280;10170;42.502;26.526;2023-03-31T00:17:29;99920.72;;;7.27;66.95
20019;BME280;10170;42.502;26.526;2023-03-31T00:19:58;99916.47;;;7.41;66.13
20019;BME280;10170;42.502;26.526;2023-03-31T00:22:29;99921.19;;;7.31;68.14
20019;BME280;10170;42.502;26.526;2023-03-31T00:24:56;99925.22;;;7.19;70.06
20019;BME280;10170;42.502;26.526;2023-03-31T00:27:22;99922.06;;;7.23;71.11
20019;BME280;10170;42.502;26.526;2023-03-31T00:29:49;99923.72;;;7.02;74.22
20019;BME280;10170;42.502;26.526;2023-03-31T00:32:18;99920.06;;;6.80;78.23
20019;BME280;10170;42.502;26.526;2023-03-31T00:34:45;99922.91;;;6.71;80.57
20019;BME280;10170;42.502;26.526;2023-03-31T00:37:12;99911.56;;;6.39;81.55
20019;BME280;10170;42.502;26.526;2023-03-31T00:39:40;99923.66;;;6.57;82.39
20019;BME280;10170;42.502;26.526;2023-03-31T00:42:11;99907.78;;;6.65;82.07
20019;BME280;10170;42.502;26.526;2023-03-31T00:47:34;99907.59;;;5.97;87.18
20019;BME280;10170;42.502;26.526;2023-03-31T00:50:01;99909.72;;;5.93;89.09
20019;BME280;10170;42.502;26.526;2023-03-31T00:52:33;99900.25;;;6.15;87.30
20019;BME280;10170;42.502;26.526;2023-03-31T00:55:07;99901.00;;;6.39;84.02
20019;BME280;10170;42.502;26.526;2023-03-31T00:57:37;99903.34;;;6.34;82.21
20019;BME280;10170;42.502;26.526;2023-03-31T01:00:10;99893.06;;;6.39;80.63
20019;BME280;10170;42.502;26.526;2023-03-31T01:02:50;99892.78;;;6.26;80.00
20019;BME280;10170;42.502;26.526;2023-03-31T01:05:26;99890.56;;;6.07;81.27
20019;BME280;10170;42.502;26.526;2023-03-31T01:07:55;99879.09;;;5.76;87.29
20019;BME280;10170;42.502;26.526;2023-03-31T01:10:23;99880.44;;;5.64;92.44
20019;BME280;10170;42.502;26.526;2023-03-31T01:12:53;99878.50;;;5.50;93.28
20019;BME280;10170;42.502;26.526;2023-03-31T01:15:21;99873.03;;;5.60;94.89
20019;BME280;10170;42.502;26.526;2023-03-31T01:17:48;99872.06;;;5.61;98.00
20019;BME280;10170;42.502;26.526;2023-03-31T01:42:36;99854.69;;;6.21;92.67
20019;BME280;10170;42.502;26.526;2023-03-31T01:45:17;99845.38;;;6.33;93.24
20019;BME280;10170;42.502;26.526;2023-03-31T01:55:57;99823.50;;;6.92;86.82
20019;BME280;10170;42.502;26.526;2023-03-31T01:58:45;99823.31;;;6.94;86.52
20019;BME280;10170;42.502;26.526;2023-03-31T02:01:22;99822.38;;;6.87;87.21
20019;BME280;10170;42.502;26.526;2023-03-31T02:04:04;99813.06;;;6.99;87.42
20019;BME280;10170;42.502;26.526;2023-03-31T02:06:37;99810.00;;;6.87;87.72
20019;BME280;10170;42.502;26.526;2023-03-31T02:09:11;99827.41;;;6.82;89.27
20019;BME280;10170;42.502;26.526;2023-03-31T02:11:40;99824.56;;;6.83;89.91
20019;BME280;10170;42.502;26.526;2023-03-31T02:14:10;99802.88;;;6.73;91.04
20019;BME280;10170;42.502;26.526;2023-03-31T02:16:41;99811.63;;;6.74;92.38
20019;BME280;10170;42.502;26.526;2023-03-31T02:19:16;99801.38;;;6.71;93.60
20019;BME280;10170;42.502;26.526;2023-03-31T02:21:46;99781.19;;;6.78;94.66
20019;BME280;10170;42.502;26.526;2023-03-31T02:24:18;99783.94;;;6.84;95.63
20019;BME280;10170;42.502;26.526;2023-03-31T02:29:25;99776.81;;;6.85;98.26
20019;BME280;10170;42.502;26.526;2023-03-31T02:32:03;99771.44;;;6.78;99.72
20019;BME280;10170;42.502;26.526;2023-03-31T02:34:34;99770.00;;;6.90;100.00
20019;BME280;10170;42.502;26.526;2023-03-31T02:37:01;99770.75;;;6.84;100.00
20019;BME280;10170;42.502;26.526;2023-03-31T02:39:33;99782.69;;;6.58;100.00
20019;BME280;10170;42.502;26.526;2023-03-31T02:42:02;99793.94;;;6.52;100.00
20019;BME280;10170;42.502;26.526;2023-03-31T02:44:34;99787.75;;;6.36;100.00
20019;BME280;10170;42.502;26.526;2023-03-31T02:47:07;99788.97;;;6.34;100.00
20019;BME280;10170;42.502;26.526;2023-03-31T02:49:37;99788.97;;;6.34;100.00
20019;BME280;10170;42.502;26.526;2023-03-31T02:57:52;99781.56;;;6.52;100.00
20019;BME280;10170;42.502;26.526;2023-03-31T03:05:47;99755.91;;;6.15;100.00
20019;BME280;10170;42.502;26.526;2023-03-31T03:11:24;99768.44;;;6.13;100.00
20019;BME280;10170;42.502;26.526;2023-03-31T03:17:26;99761.53;;;6.35;100.00
20019;BME280;10170;42.502;26.526;2023-03-31T03:19:56;99755.94;;;6.38;100.00
20019;BME280;10170;42.502;26.526;2023-03-31T03:22:24;99754.44;;;6.35;100.00
20019;BME280;10170;42.502;26.526;2023-03-31T03:24:52;99756.25;;;6.35;100.00
20019;BME280;10170;42.502;26.526;2023-03-31T03:27:19;99760.19;;;6.39;100.00
20019;BME280;10170;42.502;26.526;2023-03-31T03:29:48;99764.38;;;6.33;100.00
20019;BME280;10170;42.502;26.526;2023-03-31T03:32:14;99763.13;;;6.21;100.00
20019;BME280;10170;42.502;26.526;2023-03-31T03:34:41;99753.78;;;5.80;100.00
20019;BME280;10170;42.502;26.526;2023-03-31T03:37:08;99755.41;;;5.81;100.00
20019;BME280;10170;42.502;26.526;2023-03-31T03:39:35;99767.31;;;6.08;100.00
20019;BME280;10170;42.502;26.526;2023-03-31T03:42:02;99765.50;;;6.08;100.00
20019;BME280;10170;42.502;26.526;2023-03-31T03:44:29;99751.09;;;5.96;100.00
20019;BME280;10170;42.502;26.526;2023-03-31T03:46:56;99757.50;;;5.94;100.00
20019;BME280;10170;42.502;26.526;2023-03-31T03:49:23;99766.38;;;6.01;100.00
20019;BME280;10170;42.502;26.526;2023-03-31T03:51:50;99759.84;;;6.19;100.00
20019;BME280;10170;42.502;26.526;2023-03-31T03:54:17;99693.09;;;5.80;100.00
20019;BME280;10170;42.502;26.526;2023-03-31T03:56:43;99762.59;;;6.26;100.00
20019;BME280;10170;42.502;26.526;2023-03-31T03:59:10;99737.59;;;6.14;100.00
20019;BME280;10170;42.502;26.526;2023-03-31T04:01:37;99767.28;;;6.38;100.00
20019;BME280;10170;42.502;26.526;2023-03-31T04:04:04;99758.31;;;6.48;100.00
20019;BME280;10170;42.502;26.526;2023-03-31T04:06:31;99764.66;;;6.38;100.00
20019;BME280;10170;42.502;26.526;2023-03-31T04:08:58;99761.81;;;6.40;100.00
20019;BME280;10170;42.502;26.526;2023-03-31T04:11:24;99763.97;;;6.45;100.00
20019;BME280;10170;42.502;26.526;2023-03-31T04:13:51;99744.13;;;6.49;100.00
20019;BME280;10170;42.502;26.526;2023-03-31T04:16:18;99744.59;;;6.52;100.00
20019;BME280;10170;42.502;26.526;2023-03-31T04:18:45;99735.22;;;6.27;100.00
20019;BME280;10170;42.502;26.526;2023-03-31T04:21:14;99752.88;;;6.26;100.00
20019;BME280;10170;42.502;26.526;2023-03-31T04:23:53;99751.13;;;6.42;100.00
20019;BME280;10170;42.502;26.526;2023-03-31T04:26:32;99756.91;;;6.37;100.00
20019;BME280;10170;42.502;26.526;2023-03-31T04:29:13;99749.50;;;6.10;100.00
20019;BME280;10170;42.502;26.526;2023-03-31T04:31:42;99750.22;;;6.26;100.00
20019;BME280;10170;42.502;26.526;2023-03-31T04:34:12;99742.06;;;6.13;100.00
20019;BME280;10170;42.502;26.526;2023-03-31T04:36:45;99751.66;;;6.06;100.00
20019;BME280;10170;42.502;26.526;2023-03-31T04:39:17;99757.97;;;6.05;100.00
20019;BME280;10170;42.502;26.526;2023-03-31T04:41:57;99754.59;;;5.81;100.00
20019;BME280;10170;42.502;26.526;2023-03-31T04:44:25;99748.91;;;6.00;100.00
20019;BME280;10170;42.502;26.526;2023-03-31T04:46:53;99753.47;;;6.06;100.00
20019;BME280;10170;42.502;26.526;2023-03-31T04:49:19;99747.34;;;6.13;100.00
20019;BME280;10170;42.502;26.526;2023-03-31T04:51:46;99748.81;;;6.16;100.00
20019;BME280;10170;42.502;26.526;2023-03-31T04:54:13;99732.38;;;6.06;100.00
20019;BME280;10170;42.502;26.526;2023-03-31T04:56:40;99748.25;;;5.98;100.00
20019;BME280;10170;42.502;26.526;2023-03-31T04:59:06;99741.53;;;6.18;100.00
20019;BME280;10170;42.502;26.526;2023-03-31T05:01:34;99743.41;;;6.09;100.00
20019;BME280;10170;42.502;26.526;2023-03-31T05:04:03;99749.75;;;6.23;100.00
20019;BME280;10170;42.502;26.526;2023-03-31T05:06:31;99751.13;;;6.42;100.00
20019;BME280;10170;42.502;26.526;2023-03-31T05:08:58;99734.06;;;6.67;100.00
20019;BME280;10170;42.502;26.526;2023-03-31T05:11:25;99734.06;;;6.67;100.00
20019;BME280;10170;42.502;26.526;2023-03-31T05:13:51;99730.34;;;6.90;100.00
20019;BME280;10170;42.502;26.526;2023-03-31T05:16:18;99717.72;;;7.00;100.00
20019;BME280;10170;42.502;26.526;2023-03-31T05:18:45;99730.66;;;6.95;100.00
20019;BME280;10170;42.502;26.526;2023-03-31T05:21:18;99733.19;;;6.89;100.00
20019;BME280;10170;42.502;26.526;2023-03-31T05:23:46;99725.59;;;6.71;100.00
20019;BME280;10170;42.502;26.526;2023-03-31T05:26:14;99723.78;;;6.72;100.00
20019;BME280;10170;42.502;26.526;2023-03-31T05:28:41;99723.19;;;6.62;100.00
20019;BME280;10170;42.502;26.526;2023-03-31T05:31:09;99718.56;;;6.64;100.00
20019;BME280;10170;42.502;26.526;2023-03-31T05:33:36;99711.22;;;6.74;100.00
20019;BME280;10170;42.502;26.526;2023-03-31T05:36:08;99718.59;;;6.78;100.00
20019;BME280;10170;42.502;26.526;2023-03-31T05:38:36;99709.38;;;6.60;100.00
20019;BME280;10170;42.502;26.526;2023-03-31T05:41:03;99714.81;;;6.58;100.00
20019;BME280;10170;42.502;26.526;2023-03-31T05:43:29;99705.25;;;6.57;100.00
20019;BME280;10170;42.502;26.526;2023-03-31T05:45:56;99704.47;;;6.86;100.00
20019;BME280;10170;42.502;26.526;2023-03-31T05:48:23;99710.75;;;6.85;100.00
20019;BME280;10170;42.502;26.526;2023-03-31T05:50:50;99705.50;;;6.99;100.00
20019;BME280;10170;42.502;26.526;2023-03-31T05:53:16;99706.41;;;7.06;100.00
20019;BME280;10170;42.502;26.526;2023-03-31T05:55:43;99710.78;;;6.99;100.00
20019;BME280;10170;42.502;26.526;2023-03-31T05:58:10;99712.06;;;7.03;100.00
20019;BME280;10170;42.502;26.526;2023-03-31T06:00:36;99712.34;;;7.23;100.00
20019;BME280;10170;42.502;26.526;2023-03-31T06:03:03;99709.63;;;7.31;100.00
20019;BME280;10170;42.502;26.526;2023-03-31T06:05:33;99703.22;;;7.40;100.00
20019;BME280;10170;42.502;26.526;2023-03-31T06:08:01;99709.00;;;7.65;100.00
20019;BME280;10170;42.502;26.526;2023-03-31T06:10:28;99698.06;;;7.53;100.00
20019;BME280;10170;42.502;26.526;2023-03-31T06:12:55;99695.41;;;7.68;100.00
20019;BME280;10170;42.502;26.526;2023-03-31T06:15:21;99698.41;;;7.79;100.00
20019;BME280;10170;42.502;26.526;2023-03-31T06:17:48;99700.25;;;7.64;100.00
20019;BME280;10170;42.502;26.526;2023-03-31T06:20:15;99676.38;;;7.58;100.00
20019;BME280;10170;42.502;26.526;2023-03-31T06:22:53;99681.13;;;7.47;100.00
20019;BME280;10170;42.502;26.526;2023-03-31T06:25:20;99674.28;;;7.38;100.00
20019;BME280;10170;42.502;26.526;2023-03-31T06:27:47;99681.19;;;7.69;100.00
20019;BME280;10170;42.502;26.526;2023-03-31T06:30:14;99683.03;;;7.89;100.00
20019;BME280;10170;42.502;26.526;2023-03-31T06:32:40;99686.56;;;7.96;100.00
20019;BME280;10170;42.502;26.526;2023-03-31T06:35:07;99679.84;;;7.94;100.00
20019;BME280;10170;42.502;26.526;2023-03-31T06:37:34;99688.75;;;7.93;100.00
20019;BME280;10170;42.502;26.526;2023-03-31T06:40:01;99675.47;;;8.07;100.00
20019;BME280;10170;42.502;26.526;2023-03-31T06:42:28;99684.47;;;8.27;100.00
20019;BME280;10170;42.502;26.526;2023-03-31T06:44:55;99692.50;;;8.19;99.91
20019;BME280;10170;42.502;26.526;2023-03-31T06:47:21;99693.28;;;8.34;98.22
20019;BME280;10170;42.502;26.526;2023-03-31T06:49:48;99694.25;;;8.12;98.77
20019;BME280;10170;42.502;26.526;2023-03-31T06:52:15;99688.22;;;8.18;99.67
20019;BME280;10170;42.502;26.526;2023-03-31T06:54:42;99695.53;;;8.16;100.00
20019;BME280;10170;42.502;26.526;2023-03-31T06:57:08;99693.28;;;8.13;100.00
20019;BME280;10170;42.502;26.526;2023-03-31T06:59:35;99673.47;;;8.09;100.00
20019;BME280;10170;42.502;26.526;2023-03-31T07:02:02;99688.59;;;8.15;97.93
20019;BME280;10170;42.502;26.526;2023-03-31T07:04:29;99680.66;;;8.15;96.66
20019;BME280;10170;42.502;26.526;2023-03-31T07:06:57;99683.03;;;8.10;100.00
20019;BME280;10170;42.502;26.526;2023-03-31T07:09:24;99681.03;;;8.12;100.00
20019;BME280;10170;42.502;26.526;2023-03-31T07:11:51;99693.03;;;8.29;100.00
20019;BME280;10170;42.502;26.526;2023-03-31T07:14:18;99683.28;;;8.58;99.23
20019;BME280;10170;42.502;26.526;2023-03-31T07:16:45;99697.66;;;8.70;97.03
20019;BME280;10170;42.502;26.526;2023-03-31T07:19:11;99700.72;;;8.73;91.04
20019;BME280;10170;42.502;26.526;2023-03-31T07:21:38;99700.22;;;8.84;86.88
20019;BME280;10170;42.502;26.526;2023-03-31T07:24:05;99696.47;;;9.00;82.97
20019;BME280;10170;42.502;26.526;2023-03-31T07:26:32;99691.25;;;8.85;81.40
20019;BME280;10170;42.502;26.526;2023-03-31T07:28:59;99686.22;;;8.97;79.39
20019;BME280;10170;42.502;26.526;2023-03-31T07:31:26;99687.81;;;9.25;78.09
20019;BME280;10170;42.502;26.526;2023-03-31T07:33:52;99691.66;;;9.57;76.42
20019;BME280;10170;42.502;26.526;2023-03-31T07:36:19;99692.44;;;9.51;75.43
20019;BME280;10170;42.502;26.526;2023-03-31T07:38:47;99684.75;;;9.69;74.30
20019;BME280;10170;42.502;26.526;2023-03-31T07:41:17;99683.56;;;9.85;75.06
20019;BME280;10170;42.502;26.526;2023-03-31T07:43:45;99673.31;;;9.75;77.57
20019;BME280;10170;42.502;26.526;2023-03-31T07:46:21;99669.19;;;9.59;79.62
20019;BME280;10170;42.502;26.526;2023-03-31T07:48:49;99666.56;;;9.66;81.44
20019;BME280;10170;42.502;26.526;2023-03-31T07:51:18;99683.28;;;9.60;82.46
20019;BME280;10170;42.502;26.526;2023-03-31T07:53:46;99657.75;;;9.59;85.92
20019;BME280;10170;42.502;26.526;2023-03-31T07:56:14;99683.19;;;9.94;85.73
20019;BME280;10170;42.502;26.526;2023-03-31T07:58:43;99678.78;;;10.14;86.62
20019;BME280;10170;42.502;26.526;2023-03-31T08:01:13;99667.13;;;10.28;85.42
20019;BME280;10170;42.502;26.526;2023-03-31T08:03:46;99666.94;;;10.49;85.02
20019;BME280;10170;42.502;26.526;2023-03-31T08:06:24;99665.69;;;10.65;84.47
20019;BME280;10170;42.502;26.526;2023-03-31T08:08:51;99666.53;;;10.66;84.23
20019;BME280;10170;42.502;26.526;2023-03-31T08:11:18;99657.94;;;10.57;85.20
20019;BME280;10170;42.502;26.526;2023-03-31T08:13:46;99660.38;;;10.65;85.31
20019;BME280;10170;42.502;26.526;2023-03-31T08:16:13;99660.59;;;10.63;86.21
20019;BME280;10170;42.502;26.526;2023-03-31T08:18:41;99655.50;;;10.42;88.00
20019;BME280;10170;42.502;26.526;2023-03-31T08:21:08;99651.59;;;10.51;90.20
20019;BME280;10170;42.502;26.526;2023-03-31T08:23:37;99641.16;;;10.37;93.70
20019;BME280;10170;42.502;26.526;2023-03-31T08:26:22;99649.53;;;10.67;96.45
20019;BME280;10170;42.502;26.526;2023-03-31T08:28:52;99644.63;;;10.77;96.79
20019;BME280;10170;42.502;26.526;2023-03-31T08:31:20;99635.56;;;11.04;98.77
20019;BME280;10170;42.502;26.526;2023-03-31T08:33:47;99642.28;;;11.06;96.69
20019;BME280;10170;42.502;26.526;2023-03-31T08:36:13;99636.97;;;11.06;96.26
20019;BME280;10170;42.502;26.526;2023-03-31T08:38:42;99632.50;;;11.00;95.96
20019;BME280;10170;42.502;26.526;2023-03-31T08:44:03;99623.94;;;10.85;93.41
20019;BME280;10170;42.502;26.526;2023-03-31T08:46:33;99614.09;;;10.92;95.51
20019;BME280;10170;42.502;26.526;2023-03-31T08:49:02;99611.03;;;10.89;96.58
20019;BME280;10170;42.502;26.526;2023-03-31T08:51:36;99618.66;;;10.79;100.00
20019;BME280;10170;42.502;26.526;2023-03-31T08:54:15;99614.56;;;10.70;100.00
20019;BME280;10170;42.502;26.526;2023-03-31T08:56:45;99604.75;;;10.77;100.00
20019;BME280;10170;42.502;26.526;2023-03-31T08:59:20;99600.25;;;10.77;100.00
20019;BME280;10170;42.502;26.526;2023-03-31T09:01:51;99597.34;;;10.85;100.00
20019;BME280;10170;42.502;26.526;2023-03-31T09:07:06;99592.00;;;10.92;100.00
20019;BME280;10170;42.502;26.526;2023-03-31T09:12:27;99576.47;;;10.95;99.69
20019;BME280;10170;42.502;26.526;2023-03-31T09:15:23;99566.63;;;10.96;96.11
20019;BME280;10170;42.502;26.526;2023-03-31T09:17:52;99561.06;;;10.97;94.76
20019;BME280;10170;42.502;26.526;2023-03-31T09:20:27;99562.13;;;10.96;93.59
20019;BME280;10170;42.502;26.526;2023-03-31T09:23:20;99563.59;;;10.86;98.52
20019;BME280;10170;42.502;26.526;2023-03-31T09:25:48;99568.66;;;10.94;100.00
20019;BME280;10170;42.502;26.526;2023-03-31T09:28:20;99569.22;;;11.09;99.32
20019;BME280;10170;42.502;26.526;2023-03-31T09:30:48;99561.06;;;11.48;95.17
20019;BME280;10170;42.502;26.526;2023-03-31T09:33:20;99557.56;;;11.10;91.90
20019;BME280;10170;42.502;26.526;2023-03-31T09:35:49;99556.97;;;11.01;91.94
20019;BME280;10170;42.502;26.526;2023-03-31T09:38:17;99550.06;;;10.87;94.08
20019;BME280;10170;42.502;26.526;2023-03-31T09:40:44;99561.28;;;11.02;94.44
20019;BME280;10170;42.502;26.526;2023-03-31T09:43:29;99540.97;;;11.14;92.54
20019;BME280;10170;42.502;26.526;2023-03-31T09:45:58;99543.75;;;11.32;91.70
20019;BME280;10170;42.502;26.526;2023-03-31T09:48:34;99534.88;;;11.45;90.13
20019;BME280;10170;42.502;26.526;2023-03-31T09:51:17;99534.09;;;11.76;86.64
20019;BME280;10170;42.502;26.526;2023-03-31T09:56:51;99543.00;;;12.73;79.31
20019;BME280;10170;42.502;26.526;2023-03-31T09:59:31;99530.88;;;12.77;76.34
20019;BME280;10170;42.502;26.526;2023-03-31T10:02:02;99525.31;;;12.79;76.25
20019;BME280;10170;42.502;26.526;2023-03-31T10:04:33;99528.50;;;13.05;72.11
20019;BME280;10170;42.502;26.526;2023-03-31T10:07:03;99519.53;;;13.47;70.97
20019;BME280;10170;42.502;26.526;2023-03-31T10:09:32;99518.13;;;12.97;70.53
20019;BME280;10170;42.502;26.526;2023-03-31T10:12:06;99504.81;;;12.91;71.11
20019;BME280;10170;42.502;26.526;2023-03-31T10:14:44;99502.84;;;13.34;69.47
20019;BME280;10170;42.502;26.526;2023-03-31T10:17:19;99500.25;;;12.98;67.68
20019;BME280;10170;42.502;26.526;2023-03-31T10:24:50;99477.34;;;13.08;66.45
20019;BME280;10170;42.502;26.526;2023-03-31T10:27:25;99472.34;;;13.41;66.54
20019;BME280;10170;42.502;26.526;2023-03-31T10:29:55;99470.69;;;13.82;65.71
20019;BME280;10170;42.502;26.526;2023-03-31T10:32:27;99459.50;;;14.54;64.00
20019;BME280;10170;42.502;26.526;2023-03-31T10:34:56;99453.84;;;14.04;64.29
20019;BME280;10170;42.502;26.526;2023-03-31T10:37:26;99457.94;;;14.30;64.08
20019;BME280;10170;42.502;26.526;2023-03-31T10:40:13;99466.63;;;14.14;64.57
20019;BME280;10170;42.502;26.526;2023-03-31T10:42:44;99452.56;;;13.60;65.26
20019;BME280;10170;42.502;26.526;2023-03-31T10:45:28;99439.28;;;13.54;65.89
20019;BME280;10170;42.502;26.526;2023-03-31T10:48:04;99427.59;;;13.78;64.72
20019;BME280;10170;42.502;26.526;2023-03-31T10:50:34;99425.72;;;13.67;64.52
20019;BME280;10170;42.502;26.526;2023-03-31T10:53:20;99424.31;;;13.99;64.71
20019;BME280;10170;42.502;26.526;2023-03-31T11:15:57;99387.00;;;17.51;53.71
20019;BME280;10170;42.502;26.526;2023-03-31T11:22:00;99375.63;;;17.75;54.09
20019;BME280;10170;42.502;26.526;2023-03-31T11:30:09;99354.88;;;18.89;52.09
20019;BME280;10170;42.502;26.526;2023-03-31T11:32:46;99345.09;;;17.55;53.52
20019;BME280;10170;42.502;26.526;2023-03-31T11:37:55;99336.41;;;18.41;52.21
20019;BME280;10170;42.502;26.526;2023-03-31T11:40:43;99326.75;;;18.55;51.48
20019;BME280;10170;42.502;26.526;2023-03-31T11:46:07;99319.00;;;18.69;51.83
20019;BME280;10170;42.502;26.526;2023-03-31T11:48:54;99327.75;;;18.29;52.15
20019;BME280;10170;42.502;26.526;2023-03-31T11:51:28;99321.03;;;17.80;53.18
20019;BME280;10170;42.502;26.526;2023-03-31T11:53:57;99326.41;;;17.80;53.89
20019;BME280;10170;42.502;26.526;2023-03-31T11:56:37;99323.44;;;18.28;55.27
20019;BME280;10170;42.502;26.526;2023-03-31T11:59:06;99312.75;;;17.86;53.81
20019;BME280;10170;42.502;26.526;2023-03-31T12:04:38;99303.72;;;18.18;54.12
20019;BME280;10170;42.502;26.526;2023-03-31T12:07:37;99298.88;;;18.10;53.89
20019;BME280;10170;42.502;26.526;2023-03-31T12:10:21;99302.75;;;17.82;54.12
20019;BME280;10170;42.502;26.526;2023-03-31T12:12:56;99301.13;;;17.76;54.05
20019;BME280;10170;42.502;26.526;2023-03-31T12:15:32;99294.59;;;17.62;54.27
20019;BME280;10170;42.502;26.526;2023-03-31T12:18:12;99296.91;;;17.48;55.74
20019;BME280;10170;42.502;26.526;2023-03-31T12:20:43;99293.31;;;17.74;54.50
20019;BME280;10170;42.502;26.526;2023-03-31T12:23:15;99292.41;;;17.59;56.12
20019;BME280;10170;42.502;26.526;2023-03-31T12:28:35;99302.38;;;17.58;57.53
20019;BME280;10170;42.502;26.526;2023-03-31T12:31:06;99299.66;;;16.63;60.73
20019;BME280;10170;42.502;26.526;2023-03-31T12:33:39;99304.34;;;15.87;62.39
20019;BME280;10170;42.502;26.526;2023-03-31T12:45:09;99306.69;;;15.28;64.04
20019;BME280;10170;42.502;26.526;2023-03-31T12:53:37;99288.97;;;16.20;60.93
20019;BME280;10170;42.502;26.526;2023-03-31T12:56:07;99283.97;;;15.86;62.92
20019;BME280;10170;42.502;26.526;2023-03-31T12:58:40;99281.53;;;16.06;62.13
20019;BME280;10170;42.502;26.526;2023-03-31T13:01:20;99259.47;;;15.99;61.10
20019;BME280;10170;42.502;26.526;2023-03-31T13:04:07;99264.81;;;15.77;63.53
20019;BME280;10170;42.502;26.526;2023-03-31T13:09:05;99241.78;;;16.24;61.37
20019;BME280;10170;42.502;26.526;2023-03-31T13:11:41;99239.03;;;16.99;59.26
20019;BME280;10170;42.502;26.526;2023-03-31T13:14:19;99237.66;;;17.80;58.17
20019;BME280;10170;42.502;26.526;2023-03-31T13:16:48;99244.38;;;19.15;57.09
20019;BME280;10170;42.502;26.526;2023-03-31T13:19:34;99236.22;;;19.70;53.41
20019;BME280;10170;42.502;26.526;2023-03-31T13:22:03;99237.66;;;18.72;53.65
20019;BME280;10170;42.502;26.526;2023-03-31T13:24:32;99232.16;;;18.17;55.41
20019;BME280;10170;42.502;26.526;2023-03-31T13:27:34;99231.38;;;18.31;55.29
20019;BME280;10170;42.502;26.526;2023-03-31T13:33:04;99214.69;;;18.39;57.46
20019;BME280;10170;42.502;26.526;2023-03-31T13:35:37;99215.38;;;17.95;58.06
20019;BME280;10170;42.502;26.526;2023-03-31T13:43:58;99195.91;;;21.15;52.18
20019;BME280;10170;42.502;26.526;2023-03-31T13:52:03;99197.81;;;19.93;53.00
20019;BME280;10170;42.502;26.526;2023-03-31T14:06:43;99171.41;;;21.53;49.64
20019;BME280;10170;42.502;26.526;2023-03-31T14:09:33;99173.88;;;21.73;49.16
20019;BME280;10170;42.502;26.526;2023-03-31T14:12:21;99173.06;;;21.96;47.88
20019;BME280;10170;42.502;26.526;2023-03-31T14:14:52;99152.69;;;21.33;49.01
20019;BME280;10170;42.502;26.526;2023-03-31T14:17:22;99166.34;;;21.70;48.36
20019;BME280;10170;42.502;26.526;2023-03-31T14:26:06;99164.56;;;19.24;53.61
20019;BME280;10170;42.502;26.526;2023-03-31T14:31:34;99147.09;;;18.11;57.37
20019;BME280;10170;42.502;26.526;2023-03-31T14:37:23;99145.97;;;17.97;58.12
20019;BME280;10170;42.502;26.526;2023-03-31T14:39:52;99142.78;;;18.05;58.47
20019;BME280;10170;42.502;26.526;2023-03-31T14:45:06;99139.00;;;18.06;59.20
20019;BME280;10170;42.502;26.526;2023-03-31T14:47:35;99137.19;;;18.41;57.10
20019;BME280;10170;42.502;26.526;2023-03-31T14:50:15;99142.31;;;18.43;57.96
20019;BME280;10170;42.502;26.526;2023-03-31T14:52:50;99126.16;;;18.53;57.07
20019;BME280;10170;42.502;26.526;2023-03-31T14:55:22;99127.22;;;18.67;57.33
20019;BME280;10170;42.502;26.526;2023-03-31T14:57:54;99113.78;;;18.57;57.59
20019;BME280;10170;42.502;26.526;2023-03-31T15:00:28;99128.81;;;18.98;56.67
20019;BME280;10170;42.502;26.526;2023-03-31T15:02:57;99131.81;;;18.41;57.21
20019;BME280;10170;42.502;26.526;2023-03-31T15:05:36;99125.81;;;18.04;58.24
20019;BME280;10170;42.502;26.526;2023-03-31T15:08:21;99122.59;;;18.02;59.14
20019;BME280;10170;42.502;26.526;2023-03-31T15:10:51;99129.34;;;18.35;58.84
20019;BME280;10170;42.502;26.526;2023-03-31T15:13:34;99127.50;;;18.60;57.83
20019;BME280;10170;42.502;26.526;2023-03-31T15:18:47;99131.28;;;18.44;58.04
20019;BME280;10170;42.502;26.526;2023-03-31T15:21:21;99127.19;;;18.07;59.48
20019;BME280;10170;42.502;26.526;2023-03-31T15:23:54;99114.47;;;17.77;59.95
20019;BME280;10170;42.502;26.526;2023-03-31T15:26:28;99125.03;;;18.14;59.62
20019;BME280;10170;42.502;26.526;2023-03-31T15:29:16;99119.28;;;17.70;60.30
20019;BME280;10170;42.502;26.526;2023-03-31T15:31:45;99120.84;;;17.56;60.96
20019;BME280;10170;42.502;26.526;2023-03-31T15:34:24;99128.25;;;17.29;60.94
20019;BME280;10170;42.502;26.526;2023-03-31T15:36:54;99122.72;;;17.50;60.50
20019;BME280;10170;42.502;26.526;2023-03-31T15:39:27;99127.84;;;17.57;60.57
20019;BME280;10170;42.502;26.526;2023-03-31T15:41:57;99118.75;;;17.68;59.72
20019;BME280;10170;42.502;26.526;2023-03-31T15:44:46;99119.84;;;17.82;59.43
20019;BME280;10170;42.502;26.526;2023-03-31T15:47:22;99106.16;;;17.88;59.12
20019;BME280;10170;42.502;26.526;2023-03-31T15:49:56;99112.88;;;17.86;59.12
20019;BME280;10170;42.502;26.526;2023-03-31T15:52:35;99111.78;;;17.82;59.08
20019;BME280;10170;42.502;26.526;2023-03-31T15:57:50;99110.13;;;17.66;59.84
20019;BME280;10170;42.502;26.526;2023-03-31T16:03:15;99113.84;;;17.50;60.29
20019;BME280;10170;42.502;26.526;2023-03-31T16:05:56;99115.16;;;17.42;60.78
20019;BME280;10170;42.502;26.526;2023-03-31T16:08:35;99115.78;;;16.66;62.65
20019;BME280;10170;42.502;26.526;2023-03-31T16:11:15;99112.56;;;16.37;63.77
20019;BME280;10170;42.502;26.526;2023-03-31T16:13:48;99116.91;;;16.38;63.66